Time;durP1;ratioP1;P1;durP2;ratioP2;P2;SDS_P1;SDS_P2;PMS_P1;PMS_P2;Temp;Humidity;BMP_temperature;BMP_pressure;BME280_temperature;BME280_humidity;BME280_pressure;Samples;Min_cycle;Max_cycle;Signal;HPM_P1;HPM_P2
2021/09/18 00:00:25;;;;;;;;;17.50;16.50;;;;;21.80;48.78;100673.09;5084828;27;46096;-91
2021/09/18 00:02:56;;;;;;;;;15.75;14.75;;;;;21.67;48.54;100660.34;5083194;27;45590;-89
2021/09/18 00:05:30;;;;;;;;;16.50;13.75;;;;;21.91;48.66;100702.84;5084500;27;46027;-88
2021/09/18 00:08:01;;;;;;;;;15.50;14.50;;;;;21.89;48.54;100704.84;5084757;27;47027;-89
2021/09/18 00:10:26;;;;;;;;;13.50;13.00;;;;;21.59;48.76;100653.22;5083837;27;46037;-86
2021/09/18 00:16:13;;;;;;;;;10.75;10.75;;;;;21.73;48.83;100681.81;5072294;28;45728;-86
2021/09/18 00:18:39;;;;;;;;;12.75;12.00;;;;;21.80;49.24;100703.25;5083872;27;46635;-86
2021/09/18 00:21:04;;;;;;;;;12.75;12.25;;;;;21.78;48.76;100703.44;5082079;27;45671;-84
2021/09/18 00:23:35;;;;;;;;;14.25;13.25;;;;;21.77;49.16;100700.94;5082328;27;45278;-87
2021/09/18 00:26:13;;;;;;;;;11.00;10.75;;;;;21.57;49.36;100662.44;5080925;27;45918;-87
2021/09/18 00:28:45;;;;;;;;;12.50;9.75;;;;;21.52;49.21;100664.81;5079358;28;47551;-89
2021/09/18 00:31:10;;;;;;;;;14.75;13.75;;;;;21.48;48.97;100666.19;5078355;27;47007;-87
2021/09/18 00:33:35;;;;;;;;;10.25;10.25;;;;;21.43;48.96;100648.03;5078349;27;45548;-83
2021/09/18 00:36:01;;;;;;;;;12.00;11.75;;;;;21.61;49.38;100677.88;5078760;27;45634;-86
2021/09/18 00:38:26;;;;;;;;;12.50;11.50;;;;;21.62;49.29;100673.38;5077686;27;46944;-85
2021/09/18 00:40:51;;;;;;;;;15.50;13.25;;;;;21.67;49.00;100690.50;5077286;27;45615;-82
2021/09/18 00:46:53;;;;;;;;;12.00;11.50;;;;;21.54;49.59;100674.28;5082564;28;45557;-89
2021/09/18 00:49:33;;;;;;;;;13.50;10.75;;;;;21.61;49.24;100695.72;5086151;27;45677;-88
2021/09/18 00:52:01;;;;;;;;;16.25;12.75;;;;;21.39;49.42;100651.22;5080159;27;46079;-81
2021/09/18 00:54:27;;;;;;;;;13.25;12.25;;;;;21.55;49.47;100691.94;5078895;27;45678;-84
2021/09/18 00:56:54;;;;;;;;;12.50;12.25;;;;;21.48;49.42;100667.00;5080625;27;45620;-79
2021/09/18 00:59:21;;;;;;;;;18.25;18.25;;;;;21.45;49.17;100663.84;5080193;27;46316;-82
2021/09/18 01:01:47;;;;;;;;;18.25;14.25;;;;;21.40;49.22;100658.22;5077670;28;46034;-82
2021/09/18 01:04:13;;;;;;;;;14.75;14.00;;;;;21.41;49.06;100663.38;5075478;28;45519;-78
2021/09/18 01:06:38;;;;;;;;;12.50;12.00;;;;;21.45;49.50;100675.34;5076280;27;45866;-79
2021/09/18 01:09:05;;;;;;;;;15.25;14.75;;;;;21.41;49.86;100671.38;5075577;27;47918;-83
2021/09/18 01:11:31;;;;;;;;;15.25;14.25;;;;;21.40;49.47;100671.56;5075625;27;46996;-84
2021/09/18 01:13:57;;;;;;;;;13.25;12.75;;;;;21.17;49.70;100640.38;5075914;27;45607;-81
2021/09/18 01:16:23;;;;;;;;;17.25;16.25;;;;;21.18;49.29;100638.56;5074493;28;45592;-79
2021/09/18 01:18:48;;;;;;;;;15.50;14.00;;;;;21.32;49.68;100662.59;5075503;27;46371;-80
2021/09/18 01:21:15;;;;;;;;;14.50;13.75;;;;;21.34;49.75;100662.44;5075822;27;45601;-85
2021/09/18 01:23:41;;;;;;;;;14.50;13.75;;;;;21.24;49.62;100654.66;5075902;27;45699;-82
2021/09/18 01:26:08;;;;;;;;;16.00;15.00;;;;;21.31;49.68;100662.78;5075844;27;45528;-79
2021/09/18 01:32:19;;;;;;;;;12.75;12.50;;;;;21.24;49.77;100659.16;5077003;28;45819;-89
2021/09/18 01:34:44;;;;;;;;;15.50;14.75;;;;;21.22;49.79;100661.16;5076307;27;45610;-85
2021/09/18 01:37:09;;;;;;;;;36.00;31.25;;;;;21.14;49.65;100659.41;5076103;27;45753;-79
2021/09/18 01:39:35;;;;;;;;;12.75;12.75;;;;;21.22;49.80;100675.31;5075927;27;45499;-82
2021/09/18 01:42:00;;;;;;;;;23.75;23.00;;;;;21.02;50.04;100636.78;5075215;27;46319;-82
2021/09/18 01:44:27;;;;;;;;;17.00;14.75;;;;;21.15;49.79;100661.06;5073897;28;45778;-84
2021/09/18 01:46:52;;;;;;;;;12.00;11.25;;;;;21.14;49.70;100669.19;5091363;27;45639;-79
2021/09/18 01:49:18;;;;;;;;;11.50;10.50;;;;;21.11;50.39;100653.53;5075113;27;46531;-82
2021/09/18 01:51:55;;;;;;;;;14.75;13.50;;;;;21.07;50.20;100647.75;5076847;28;46125;-83
2021/09/18 01:54:20;;;;;;;;;14.75;13.50;;;;;21.13;50.08;100651.53;5077933;27;45655;-83
2021/09/18 01:56:46;;;;;;;;;15.75;13.25;;;;;21.03;49.77;100650.94;5079991;27;45490;-85
2021/09/18 02:02:33;;;;;;;;;11.50;11.50;;;;;21.04;49.88;100671.25;5084117;28;46151;-83
2021/09/18 02:04:59;;;;;;;;;12.50;12.50;;;;;21.04;49.93;100663.28;5084937;27;45599;-87
2021/09/18 02:07:24;;;;;;;;;11.25;11.25;;;;;21.04;50.22;100671.25;5084226;27;45580;-85
2021/09/18 02:09:49;;;;;;;;;15.00;14.25;;;;;21.03;49.92;100658.94;5083856;27;45663;-84
2021/09/18 02:12:15;;;;;;;;;14.00;13.00;;;;;21.00;50.32;100664.63;5080874;27;47170;-84
2021/09/18 02:14:40;;;;;;;;;14.00;14.00;;;;;20.99;49.91;100660.31;5077447;27;46113;-83
2021/09/18 02:17:05;;;;;;;;;13.50;12.50;;;;;20.95;50.12;100652.63;5076626;27;45656;-87
2021/09/18 02:19:31;;;;;;;;;15.50;13.75;;;;;20.99;49.85;100660.31;5076853;28;45584;-83
2021/09/18 02:21:56;;;;;;;;;17.50;15.00;;;;;20.95;49.93;100657.13;5076874;27;45532;-85
2021/09/18 02:24:21;;;;;;;;;12.25;11.50;;;;;20.82;50.07;100640.91;5076286;27;45596;-85
2021/09/18 02:26:50;;;;;;;;;13.25;12.25;;;;;20.94;50.10;100661.63;5075944;27;45742;-89
2021/09/18 02:32:37;;;;;;;;;12.75;11.50;;;;;20.85;49.70;100637.88;5075174;28;46005;-84
2021/09/18 02:35:06;;;;;;;;;10.00;9.75;;;;;20.90;49.95;100654.16;5075646;27;45497;-89
2021/09/18 02:37:31;;;;;;;;;12.25;12.25;;;;;20.85;50.06;100652.03;5073497;28;45877;-85
2021/09/18 02:40:05;;;;;;;;;10.50;10.00;;;;;20.85;50.08;100659.19;5075713;27;45899;-89
2021/09/18 02:42:42;;;;;;;;;14.00;13.00;;;;;20.54;50.34;100605.94;5075372;27;47632;-88
2021/09/18 02:45:09;;;;;;;;;12.50;11.75;;;;;20.38;50.43;100579.38;5074079;27;45612;-89
2021/09/18 02:47:34;;;;;;;;;13.00;12.50;;;;;20.79;49.97;100651.88;5076151;28;45886;-89
2021/09/18 02:50:01;;;;;;;;;11.25;10.75;;;;;20.75;50.13;100642.59;5074025;28;47422;-88
2021/09/18 02:52:27;;;;;;;;;13.25;13.25;;;;;20.36;50.22;100579.53;5093367;27;45911;-89
2021/09/18 02:54:52;;;;;;;;;12.50;12.25;;;;;20.33;50.32;100573.75;5094078;27;45583;-88
2021/09/18 02:57:25;;;;;;;;;12.25;12.25;;;;;20.62;50.17;100632.50;5099232;27;45660;-88
2021/09/18 03:03:13;;;;;;;;;15.25;14.00;;;;;20.66;50.25;100647.16;5098019;27;45789;-87
2021/09/18 03:05:47;;;;;;;;;15.25;14.50;;;;;20.22;50.43;100592.72;5099431;27;45912;-88
2021/09/18 03:08:14;;;;;;;;;14.50;13.25;;;;;20.18;50.35;100589.59;5080428;27;45701;-88
2021/09/18 03:10:40;;;;;;;;;13.75;13.00;;;;;20.16;50.57;100580.94;5095239;27;45785;-80
2021/09/18 03:13:05;;;;;;;;;15.25;14.25;;;;;20.46;50.47;100640.53;5095299;27;46087;-85
2021/09/18 03:15:30;;;;;;;;;14.50;13.50;;;;;20.52;50.77;100647.84;5095287;27;45770;-87
2021/09/18 03:17:57;;;;;;;;;16.75;13.00;;;;;20.25;50.78;100609.16;5095716;27;45544;-88
2021/09/18 03:20:28;;;;;;;;;12.75;12.50;;;;;20.47;50.98;100656.34;5078100;27;48172;-86
2021/09/18 03:22:56;;;;;;;;;14.75;14.50;;;;;20.24;50.82;100610.19;5090706;27;46092;-87
2021/09/18 03:25:21;;;;;;;;;15.25;15.25;;;;;20.22;51.10;100608.69;5077575;27;45523;-82
2021/09/18 03:27:46;;;;;;;;;15.75;14.00;;;;;20.41;50.83;100643.72;5076947;27;45564;-88
2021/09/18 03:33:33;;;;;;;;;12.00;12.00;;;;;20.39;50.98;100636.94;5079070;28;46174;-82
2021/09/18 03:35:59;;;;;;;;;12.75;11.25;;;;;20.37;51.18;100633.59;5079159;27;45953;-78
2021/09/18 03:38:24;;;;;;;;;15.00;15.00;;;;;20.39;50.93;100632.44;5078633;28;45682;-81
2021/09/18 03:40:50;;;;;;;;;14.50;14.50;;;;;20.35;51.18;100625.78;5077782;28;48567;-84
2021/09/18 03:43:16;;;;;;;;;16.75;14.75;;;;;20.38;51.09;100630.78;5081272;27;46475;-86
2021/09/18 03:45:41;;;;;;;;;16.00;15.00;;;;;20.32;51.25;100628.81;5084242;27;45592;-83
2021/09/18 03:48:10;;;;;;;;;15.00;13.50;;;;;20.37;51.16;100628.28;5083416;27;45603;-88
2021/09/18 03:50:55;;;;;;;;;18.00;14.50;;;;;20.35;51.51;100632.97;5082041;28;46417;-88
2021/09/18 03:53:31;;;;;;;;;15.25;15.25;;;;;20.16;51.25;100593.41;5077744;28;46739;-86
2021/09/18 03:56:00;;;;;;;;;14.75;14.75;;;;;19.88;51.48;100561.06;5078125;28;45937;-84
2021/09/18 03:58:45;;;;;;;;;13.75;12.00;;;;;19.93;51.24;100566.69;5077260;27;45607;-88
2021/09/18 04:01:18;;;;;;;;;11.75;9.75;;;;;20.07;51.55;100606.75;5078168;27;45725;-83
2021/09/18 04:03:59;;;;;;;;;13.00;11.25;;;;;20.06;51.58;100601.56;5094231;27;47256;-88
2021/09/18 04:06:27;;;;;;;;;17.00;14.75;;;;;20.32;51.67;100644.78;5077326;28;45829;-83
2021/09/18 04:08:56;;;;;;;;;22.00;22.00;;;;;20.04;51.32;100598.25;5078694;27;45831;-87
2021/09/18 04:11:21;;;;;;;;;13.25;11.25;;;;;19.91;51.50;100582.84;5079170;28;45746;-82
2021/09/18 04:13:47;;;;;;;;;12.75;12.75;;;;;20.23;51.49;100639.63;5080100;27;45924;-81
2021/09/18 04:16:13;;;;;;;;;14.00;13.25;;;;;20.31;51.44;100655.53;5079627;27;45746;-86
2021/09/18 04:18:38;;;;;;;;;15.50;14.50;;;;;20.31;51.38;100661.72;5080688;27;45470;-81
2021/09/18 04:21:03;;;;;;;;;14.25;13.50;;;;;20.29;51.31;100646.91;5080196;27;47390;-85
2021/09/18 04:23:32;;;;;;;;;14.00;14.00;;;;;20.30;51.39;100652.06;5078713;27;45627;-86
2021/09/18 04:25:57;;;;;;;;;11.50;11.50;;;;;20.30;51.39;100643.22;5078294;27;45739;-85
2021/09/18 04:28:23;;;;;;;;;14.75;14.00;;;;;20.28;51.33;100640.75;5078669;27;45830;-88
2021/09/18 04:34:09;;;;;;;;;18.25;15.75;;;;;19.96;51.48;100599.13;5078057;28;45758;-86
2021/09/18 04:36:38;;;;;;;;;15.75;15.75;;;;;19.80;51.65;100571.72;5079521;27;45716;-86
2021/09/18 04:39:04;;;;;;;;;12.00;12.00;;;;;20.04;51.71;100614.22;5078924;27;45574;-87
2021/09/18 04:41:46;;;;;;;;;13.50;13.50;;;;;19.91;51.48;100608.59;5077705;27;46564;-88
2021/09/18 04:44:17;;;;;;;;;25.75;20.50;;;;;19.75;51.64;100574.91;5078034;27;46731;-88
2021/09/18 04:46:59;;;;;;;;;13.50;12.50;;;;;19.86;51.68;100598.47;5077266;28;45764;-86
2021/09/18 04:49:24;;;;;;;;;13.75;13.50;;;;;20.20;51.67;100647.91;5076739;27;45648;-87
2021/09/18 04:51:56;;;;;;;;;15.00;14.00;;;;;19.98;51.75;100618.38;5077277;27;46234;-88
2021/09/18 04:54:24;;;;;;;;;16.00;14.00;;;;;20.12;51.97;100643.47;5077276;27;47528;-87
2021/09/18 04:56:52;;;;;;;;;13.50;12.50;;;;;20.00;51.80;100637.66;5077685;27;45617;-86
2021/09/18 04:59:17;;;;;;;;;15.00;14.75;;;;;20.08;51.79;100648.28;5077610;27;45625;-87
2021/09/18 05:01:49;;;;;;;;;15.25;15.00;;;;;20.14;51.72;100657.41;5077810;27;46406;-88
2021/09/18 05:04:20;;;;;;;;;17.00;15.00;;;;;20.12;51.79;100656.78;5078046;27;46003;-86
2021/09/18 05:06:48;;;;;;;;;14.00;13.75;;;;;19.99;52.08;100641.31;5079195;27;45791;-88
2021/09/18 05:09:25;;;;;;;;;15.50;14.75;;;;;19.91;51.94;100629.88;5081498;27;45617;-88
2021/09/18 05:11:50;;;;;;;;;18.75;17.75;;;;;19.81;51.98;100613.28;5079458;27;45852;-87
2021/09/18 05:14:17;;;;;;;;;15.00;14.25;;;;;20.01;51.89;100657.13;5077486;27;45602;-82
2021/09/18 05:16:42;;;;;;;;;12.75;12.75;;;;;20.01;51.96;100657.94;5076157;27;45846;-82
2021/09/18 05:19:08;;;;;;;;;18.25;15.75;;;;;20.03;52.07;100658.59;5076780;28;45506;-77
2021/09/18 05:21:33;;;;;;;;;14.00;13.00;;;;;20.02;52.10;100666.75;5076953;27;45578;-81
2021/09/18 05:23:59;;;;;;;;;15.50;14.50;;;;;20.01;51.96;100663.28;5091781;27;47373;-85
2021/09/18 05:26:24;;;;;;;;;15.25;14.50;;;;;19.97;52.17;100659.25;5080183;27;45568;-80
2021/09/18 05:28:52;;;;;;;;;15.75;14.50;;;;;19.87;52.07;100647.16;5082882;27;45451;-83
2021/09/18 05:34:39;;;;;;;;;15.50;13.75;;;;;19.96;52.30;100667.44;5080323;28;45867;-84
2021/09/18 05:37:05;;;;;;;;;17.25;14.50;;;;;19.89;52.49;100659.28;5075325;28;45710;-78
2021/09/18 05:39:31;;;;;;;;;14.75;13.50;;;;;19.93;52.20;100670.41;5077038;28;45717;-83
2021/09/18 05:41:56;;;;;;;;;15.00;13.25;;;;;19.89;52.34;100658.47;5075780;27;45705;-78
2021/09/18 05:44:22;;;;;;;;;16.25;16.25;;;;;19.90;52.25;100673.41;5075634;27;45671;-82
2021/09/18 05:50:11;;;;;;;;;15.25;14.00;;;;;19.82;52.65;100665.44;5076022;28;45476;-85
2021/09/18 05:52:36;;;;;;;;;14.75;14.00;;;;;19.60;52.41;100638.53;5075067;27;46941;-83
2021/09/18 05:55:01;;;;;;;;;16.00;15.00;;;;;19.78;52.69;100672.94;5076131;27;45655;-86
2021/09/18 05:57:27;;;;;;;;;15.75;15.50;;;;;19.64;52.82;100647.03;5076240;27;45518;-82
2021/09/18 05:59:56;;;;;;;;;18.00;14.75;;;;;19.77;52.84;100678.41;5076656;27;45791;-83
2021/09/18 06:02:23;;;;;;;;;13.25;11.75;;;;;19.75;52.78;100673.28;5076499;28;46537;-77
2021/09/18 06:04:48;;;;;;;;;13.50;13.50;;;;;19.74;52.93;100674.25;5074795;27;46290;-78
2021/09/18 06:07:14;;;;;;;;;13.25;12.75;;;;;19.65;52.93;100656.63;5075267;27;45549;-78
2021/09/18 06:09:40;;;;;;;;;14.50;14.00;;;;;19.62;52.92;100663.13;5075119;27;45517;-77
2021/09/18 06:12:05;;;;;;;;;13.50;13.00;;;;;19.78;52.64;100683.56;5074826;27;45508;-75
2021/09/18 06:14:30;;;;;;;;;18.25;16.25;;;;;19.79;52.97;100687.88;5075017;27;46085;-77
2021/09/18 06:20:31;;;;;;;;;24.00;20.75;;;;;19.75;52.76;100691.06;5065530;28;45763;-76
2021/09/18 06:22:57;;;;;;;;;21.25;20.00;;;;;19.78;53.15;100690.69;5075346;27;46349;-77
2021/09/18 06:25:22;;;;;;;;;18.75;17.75;;;;;19.78;53.11;100694.19;5075383;27;45714;-77
2021/09/18 06:27:48;;;;;;;;;18.50;15.25;;;;;19.79;53.10;100697.69;5074797;27;45591;-77
2021/09/18 06:30:17;;;;;;;;;22.00;21.00;;;;;19.78;53.03;100690.69;5074938;27;45621;-75
2021/09/18 06:32:42;;;;;;;;;17.50;15.00;;;;;19.80;53.32;100694.88;5073660;28;47796;-76
2021/09/18 06:35:08;;;;;;;;;16.50;15.50;;;;;19.79;53.30;100687.88;5074218;27;46108;-76
2021/09/18 06:37:46;;;;;;;;;14.50;14.00;;;;;19.79;53.33;100697.69;5074607;27;45716;-77
2021/09/18 06:40:14;;;;;;;;;13.75;12.75;;;;;19.78;53.16;100696.03;5074409;27;45579;-76
2021/09/18 06:42:39;;;;;;;;;16.75;13.50;;;;;19.76;53.37;100688.19;5074229;27;46201;-76
2021/09/18 06:51:13;;;;;;;;;12.75;12.00;;;;;19.72;53.80;100688.69;5073937;28;45554;-77
2021/09/18 06:53:39;;;;;;;;;14.25;13.75;;;;;19.73;53.32;100691.22;5073743;27;46641;-75
2021/09/18 06:56:05;;;;;;;;;11.50;11.00;;;;;19.74;53.54;100689.38;5074124;27;46024;-76
2021/09/18 06:58:30;;;;;;;;;14.75;14.00;;;;;19.73;53.10;100683.22;5073999;27;45677;-76
2021/09/18 07:00:56;;;;;;;;;13.50;12.25;;;;;19.71;53.09;100679.91;5073967;27;45576;-76
2021/09/18 07:03:23;;;;;;;;;13.25;12.75;;;;;19.69;53.34;100677.41;5074607;27;47253;-76
2021/09/18 07:05:49;;;;;;;;;14.00;13.50;;;;;19.76;53.50;100690.06;5077913;28;45523;-76
2021/09/18 07:08:14;;;;;;;;;12.25;11.75;;;;;19.77;53.57;100684.56;5077396;27;45533;-75
2021/09/18 07:10:39;;;;;;;;;15.00;14.00;;;;;19.78;53.06;100688.03;5077494;27;45519;-77
2021/09/18 07:13:05;;;;;;;;;15.50;14.25;;;;;19.79;53.30;100689.72;5077019;27;46293;-77
2021/09/18 07:15:30;;;;;;;;;13.50;13.50;;;;;19.79;53.51;100698.53;5092971;27;46394;-78
2021/09/18 07:17:55;;;;;;;;;15.50;14.75;;;;;19.81;53.52;100698.38;5077376;27;45436;-75
2021/09/18 07:20:21;;;;;;;;;13.50;13.50;;;;;19.81;53.32;100703.69;5077009;27;45899;-76
2021/09/18 07:22:46;;;;;;;;;12.50;12.50;;;;;19.77;53.12;100689.88;5076050;27;45659;-76
2021/09/18 07:25:12;;;;;;;;;13.75;12.75;;;;;19.82;53.29;100697.34;5076949;27;45660;-77
2021/09/18 07:27:38;;;;;;;;;11.25;10.25;;;;;19.77;53.27;100683.72;5076116;28;45764;-76
2021/09/18 07:30:05;;;;;;;;;16.50;13.75;;;;;19.86;53.32;100696.88;5076974;27;45595;-77
2021/09/18 07:35:51;;;;;;;;;14.75;13.75;;;;;19.83;53.60;100694.53;5078666;28;46083;-76
2021/09/18 07:38:17;;;;;;;;;12.50;11.00;;;;;19.90;53.18;100700.84;5080679;27;45659;-74
2021/09/18 07:40:42;;;;;;;;;8.75;8.50;;;;;19.93;53.26;100702.31;5078411;27;45641;-74
2021/09/18 07:43:09;;;;;;;;;14.25;13.25;;;;;19.94;53.24;100702.16;5077406;27;46580;-76
2021/09/18 07:51:40;;;;;;;;;10.25;9.75;;;;;19.99;52.92;100702.50;5076816;28;45770;-76
2021/09/18 07:54:06;;;;;;;;;11.50;11.50;;;;;20.04;53.21;100708.13;5076855;27;46317;-78
2021/09/18 07:56:31;;;;;;;;;12.00;11.00;;;;;20.04;52.84;100702.81;5076919;27;46105;-76
2021/09/18 07:58:57;;;;;;;;;10.00;10.00;;;;;20.00;52.75;100700.66;5076263;27;45545;-76
2021/09/18 08:01:24;;;;;;;;;8.25;8.25;;;;;20.02;52.87;100702.19;5075784;27;45888;-76
2021/09/18 08:03:50;;;;;;;;;9.00;8.50;;;;;20.09;52.57;100711.13;5076108;27;45812;-76
2021/09/18 08:06:15;;;;;;;;;10.75;10.25;;;;;20.11;52.92;100714.47;5076133;27;47025;-76
2021/09/18 08:08:41;;;;;;;;;10.25;9.25;;;;;20.10;52.34;100712.78;5091309;27;45683;-75
2021/09/18 08:11:06;;;;;;;;;8.00;8.00;;;;;20.11;52.65;100710.97;5076630;27;45737;-74
2021/09/18 08:13:31;;;;;;;;;9.25;9.00;;;;;20.17;52.52;100720.94;5076532;27;45606;-78
2021/09/18 08:15:57;;;;;;;;;10.00;10.00;;;;;20.21;52.62;100718.75;5075824;27;45489;-76
2021/09/18 08:18:22;;;;;;;;;9.25;9.25;;;;;20.19;52.73;100716.25;5075077;28;45629;-77
2021/09/18 08:20:47;;;;;;;;;12.50;12.50;;;;;20.22;52.69;100715.94;5076239;27;45721;-77
2021/09/18 08:23:13;;;;;;;;;11.00;11.00;;;;;20.22;52.42;100712.44;5076174;27;45552;-77
2021/09/18 08:25:38;;;;;;;;;11.00;10.75;;;;;20.28;52.56;100727.75;5076598;27;45583;-79
2021/09/18 08:28:05;;;;;;;;;10.75;10.00;;;;;20.29;52.54;100724.91;5075373;28;46221;-76
2021/09/18 08:30:30;;;;;;;;;14.00;10.75;;;;;20.34;52.65;100721.78;5077145;27;45731;-77
2021/09/18 08:36:17;;;;;;;;;10.75;10.00;;;;;20.37;52.44;100727.59;5076079;28;45886;-76
2021/09/18 08:38:42;;;;;;;;;13.00;12.50;;;;;20.42;52.33;100727.06;5076153;27;45584;-77
2021/09/18 08:41:08;;;;;;;;;9.75;9.75;;;;;20.44;52.35;100727.75;5076058;27;45486;-76
2021/09/18 08:43:34;;;;;;;;;9.00;9.00;;;;;20.42;52.65;100711.94;5075977;27;46376;-76
2021/09/18 08:46:00;;;;;;;;;12.50;10.75;;;;;20.44;52.37;100709.13;5076132;27;46006;-76
2021/09/18 08:51:47;;;;;;;;;8.50;8.50;;;;;20.49;52.48;100706.78;5075523;28;45696;-79
2021/09/18 08:54:13;;;;;;;;;8.50;8.25;;;;;20.56;52.55;100713.09;5075465;28;46276;-76
2021/09/18 08:56:39;;;;;;;;;8.50;8.00;;;;;20.59;52.21;100715.38;5075747;27;45565;-75
2021/09/18 08:59:05;;;;;;;;;8.50;8.00;;;;;20.62;52.34;100715.03;5075613;27;45482;-77
2021/09/18 09:01:33;;;;;;;;;8.00;7.50;;;;;20.60;52.43;100702.91;5075645;27;45500;-77
2021/09/18 09:04:01;;;;;;;;;8.00;7.00;;;;;20.68;52.12;100709.03;5075452;27;46732;-77
2021/09/18 09:06:49;;;;;;;;;9.25;8.75;;;;;20.68;52.29;100708.19;5075505;27;47094;-77
2021/09/18 09:09:15;;;;;;;;;10.00;9.00;;;;;20.74;52.39;100721.66;5075599;27;45510;-77
2021/09/18 09:11:52;;;;;;;;;9.00;8.25;;;;;20.76;52.12;100717.00;5075802;27;45994;-76
2021/09/18 09:14:17;;;;;;;;;9.75;8.75;;;;;20.80;52.10;100715.66;5075454;28;47468;-75
2021/09/18 09:17:02;;;;;;;;;8.75;8.00;;;;;20.83;52.11;100712.66;5077118;27;47439;-75
2021/09/18 09:19:36;;;;;;;;;10.75;9.50;;;;;20.86;52.02;100706.97;5076539;27;45614;-76
2021/09/18 09:22:02;;;;;;;;;9.50;9.00;;;;;20.87;52.03;100697.97;5075626;27;45761;-78
2021/09/18 09:24:27;;;;;;;;;8.25;7.75;;;;;20.93;51.91;100704.44;5075319;27;47741;-76
2021/09/18 09:27:10;;;;;;;;;10.50;9.50;;;;;20.97;51.94;100703.09;5075501;27;46292;-76
2021/09/18 09:29:43;;;;;;;;;8.25;8.00;;;;;21.03;51.96;100701.56;5075627;27;45492;-76
2021/09/18 09:32:43;;;;;;;;;9.00;8.00;;;;;21.07;51.61;100702.88;5075649;27;45644;-77
2021/09/18 09:35:11;;;;;;;;;10.75;10.75;;;;;21.10;51.81;100694.53;5072866;28;46635;-76
2021/09/18 09:37:37;;;;;;;;;11.75;8.00;;;;;21.11;51.83;100685.53;5073275;28;45901;-76
2021/09/18 09:40:06;;;;;;;;;10.00;9.00;;;;;21.18;51.68;100692.69;5072978;28;45608;-75
2021/09/18 09:42:49;;;;;;;;;9.00;8.75;;;;;21.22;51.85;100696.66;5073039;28;45834;-74
2021/09/18 09:45:19;;;;;;;;;9.25;9.25;;;;;21.23;51.59;100697.47;5072746;28;46516;-74
2021/09/18 09:47:59;;;;;;;;;9.75;9.00;;;;;21.27;51.66;100701.44;5073075;28;46224;-76
2021/09/18 09:50:24;;;;;;;;;9.75;9.50;;;;;21.26;51.49;100695.31;5072846;28;45483;-76
2021/09/18 09:52:50;;;;;;;;;11.75;10.00;;;;;21.33;51.34;100698.09;5072901;28;45848;-76
2021/09/18 09:55:18;;;;;;;;;12.00;11.00;;;;;21.37;51.70;100701.25;5072506;28;46483;-75
2021/09/18 09:57:45;;;;;;;;;8.00;7.75;;;;;21.39;51.52;100700.03;5055717;28;46345;-75
2021/09/18 10:00:14;;;;;;;;;11.00;10.25;;;;;21.39;51.41;100688.56;5072953;28;45719;-76
2021/09/18 10:02:41;;;;;;;;;9.75;8.25;;;;;21.48;51.75;100695.50;5072743;28;45780;-77
2021/09/18 10:05:09;;;;;;;;;11.50;11.00;;;;;21.52;51.63;100697.63;5072962;28;46426;-76
2021/09/18 10:07:38;;;;;;;;;11.50;11.25;;;;;21.56;51.45;100690.09;5072957;28;46358;-76
2021/09/18 10:10:05;;;;;;;;;11.00;11.00;;;;;21.59;51.77;100703.91;5073401;28;45772;-76
2021/09/18 10:12:32;;;;;;;;;9.75;9.00;;;;;21.62;51.65;100702.72;5075154;27;45606;-75
2021/09/18 10:14:58;;;;;;;;;11.25;11.25;;;;;21.66;51.61;100698.69;5074839;27;47356;-76
2021/09/18 10:17:24;;;;;;;;;11.50;11.50;;;;;21.68;51.36;100702.00;5074928;27;46012;-77
2021/09/18 10:25:33;;;;;;;;;12.50;10.50;;;;;21.77;51.45;100698.25;5074925;28;45662;-76
2021/09/18 10:28:08;;;;;;;;;10.00;9.00;;;;;21.80;50.81;100695.25;5073163;28;46235;-77
2021/09/18 10:30:40;;;;;;;;;9.00;8.25;;;;;21.84;50.89;100698.38;5074278;28;45479;-77
2021/09/18 10:33:07;;;;;;;;;10.00;9.75;;;;;21.87;51.10;100692.69;5078461;27;45533;-76
2021/09/18 10:35:53;;;;;;;;;8.25;8.00;;;;;21.92;50.97;100690.28;5078614;27;45582;-76
2021/09/18 10:38:22;;;;;;;;;9.25;8.50;;;;;21.98;51.02;100684.28;5079781;27;46228;-77
2021/09/18 10:41:00;;;;;;;;;10.25;9.50;;;;;22.02;51.27;100678.41;5081727;27;45686;-78
2021/09/18 10:43:32;;;;;;;;;7.50;7.50;;;;;22.07;50.90;100680.53;5081907;27;45575;-78
2021/09/18 10:46:00;;;;;;;;;6.25;6.25;;;;;22.07;50.61;100669.88;5078326;27;47308;-78
2021/09/18 10:48:34;;;;;;;;;8.00;7.50;;;;;22.17;51.13;100667.75;5078375;27;46407;-79
2021/09/18 10:51:00;;;;;;;;;10.50;9.75;;;;;22.22;50.58;100662.69;5077237;28;45703;-76
2021/09/18 10:53:26;;;;;;;;;11.50;9.75;;;;;22.27;50.61;100662.97;5078306;28;45770;-77
2021/09/18 10:55:55;;;;;;;;;7.75;6.50;;;;;22.32;50.56;100655.25;5078667;28;45639;-77
2021/09/18 10:58:22;;;;;;;;;6.50;6.50;;;;;22.35;50.53;100648.72;5079368;27;45919;-76
2021/09/18 11:00:51;;;;;;;;;9.00;9.00;;;;;22.41;50.77;100651.44;5079143;27;45649;-76
2021/09/18 11:03:43;;;;;;;;;7.00;7.00;;;;;22.45;50.12;100644.75;5080994;28;45648;-76
2021/09/18 11:06:29;;;;;;;;;9.00;8.00;;;;;22.50;50.73;100650.38;5085296;28;46453;-77
2021/09/18 11:08:54;;;;;;;;;0.75;0.00;;;;;22.55;50.16;100645.28;5091307;28;45623;-77
2021/09/18 11:11:25;;;;;;;;;7.00;7.00;;;;;22.58;50.43;100650.25;5089582;27;45594;-76
2021/09/18 11:13:55;;;;;;;;;7.00;6.75;;;;;22.58;50.60;100633.41;5090504;27;45454;-76
2021/09/18 11:16:33;;;;;;;;;8.50;8.00;;;;;22.68;50.35;100641.13;5088549;27;45799;-74
2021/09/18 11:19:02;;;;;;;;;8.00;7.25;;;;;22.72;50.32;100640.63;5079892;27;47010;-77
2021/09/18 11:21:27;;;;;;;;;9.00;8.50;;;;;22.77;50.10;100640.03;5076773;27;45612;-76
2021/09/18 11:23:56;;;;;;;;;8.00;7.00;;;;;22.78;49.90;100631.03;5077441;27;45784;-77
2021/09/18 11:26:35;;;;;;;;;6.75;6.25;;;;;22.87;49.68;100630.72;5077272;28;46366;-77
2021/09/18 11:29:29;;;;;;;;;6.50;5.00;;;;;22.91;50.19;100631.16;5077247;28;46120;-77
2021/09/18 11:32:01;;;;;;;;;7.75;7.00;;;;;22.94;49.49;100636.94;5077212;27;45658;-74
2021/09/18 11:34:30;;;;;;;;;7.00;7.00;;;;;22.97;50.13;100638.41;5084998;27;45619;-77
2021/09/18 11:36:58;;;;;;;;;7.00;7.00;;;;;23.03;50.05;100635.00;5084601;28;46817;-76
2021/09/18 11:39:42;;;;;;;;;7.50;6.75;;;;;23.07;49.56;100627.41;5079640;28;45611;-77
2021/09/18 11:42:29;;;;;;;;;7.25;7.25;;;;;23.10;49.20;100624.38;5079098;27;45648;-76
2021/09/18 11:45:18;;;;;;;;;7.75;7.00;;;;;23.16;49.30;100613.72;5077547;28;45783;-77
2021/09/18 11:51:06;;;;;;;;;6.00;6.00;;;;;23.24;49.57;100613.63;5076544;28;45928;-75
2021/09/18 11:53:34;;;;;;;;;7.00;6.25;;;;;23.31;49.26;100619.88;5077635;28;45595;-75
2021/09/18 11:55:59;;;;;;;;;6.00;6.00;;;;;23.36;49.64;100611.28;5080548;27;45462;-75
2021/09/18 11:58:31;;;;;;;;;5.25;5.00;;;;;23.41;49.65;100603.50;5078027;27;45564;-76
2021/09/18 12:01:05;;;;;;;;;7.00;6.00;;;;;23.47;49.43;100609.97;5077507;28;45502;-77
2021/09/18 12:07:00;;;;;;;;;6.75;6.50;;;;;23.62;49.17;100610.69;5076705;28;45619;-75
2021/09/18 12:09:28;;;;;;;;;6.75;6.25;;;;;23.67;48.43;100614.44;5076875;27;45540;-76
2021/09/18 12:11:54;;;;;;;;;6.00;5.75;;;;;23.71;48.53;100605.00;5091821;27;46418;-75
2021/09/18 12:14:31;;;;;;;;;7.00;7.00;;;;;23.82;48.55;100612.50;5076684;27;45568;-77
2021/09/18 12:16:57;;;;;;;;;5.00;4.50;;;;;23.86;48.84;100604.91;5076464;27;45611;-76
2021/09/18 12:22:57;;;;;;;;;5.25;4.75;;;;;23.96;48.77;100601.91;5066911;28;45756;-77
2021/09/18 12:25:26;;;;;;;;;5.25;5.00;;;;;23.99;48.57;100602.31;5076079;28;45621;-76
2021/09/18 12:28:00;;;;;;;;;5.50;5.00;;;;;24.06;48.00;100602.38;5076353;27;45490;-75
2021/09/18 12:30:41;;;;;;;;;4.50;4.25;;;;;24.08;48.04;100608.34;5075901;27;46599;-77
2021/09/18 12:33:10;;;;;;;;;5.00;5.00;;;;;24.11;48.09;100600.75;5076007;27;47078;-77
2021/09/18 12:35:38;;;;;;;;;5.25;5.00;;;;;24.14;47.50;100603.03;5075928;27;45630;-75